Cuba, Ohio
Current Conditions -  °F | °C
As of 7:54 PM on Saturday 25 Oct 2014 (Local Time) from KILN Reporting Station
Clear Clear  
Wind Chill: 63°   Ceiling: Unl
Heat Index: 63°   Visibility: 10mi
Dew Point: 52°   Wind: 12mph
Humidity: 67%   Direction: 240°WSW
Pressure: 29.89"   Gusts: NA
Location:  39.36°N, 83.86°W
Report Text: KILN 252354Z AUTO 24010KT 10SM CLR 17/11 A2989 RMK AO2 SLP127 60000 T01720111 10211 20172 58003
Loading
Personal Weather Stations






























Interactive Weather Map
Tropical Storm Tracking
New forecast layout! Learn more

10-Day Weather Forecast

Advertisements
Track Severe Weather on mobile